createdAt,value
2019-01-05T00:01:46.038Z,3.20
2019-01-05T00:04:31.697Z,3.95
2019-01-05T00:07:27.369Z,3.00
2019-01-05T00:10:26.123Z,2.55
2019-01-05T00:13:22.095Z,3.05
2019-01-05T00:16:22.815Z,4.32
2019-01-05T00:19:15.699Z,3.97
2019-01-05T00:22:01.097Z,3.40
2019-01-05T00:24:46.530Z,3.17
2019-01-05T00:27:32.107Z,3.75
2019-01-05T00:30:18.299Z,3.30
2019-01-05T00:33:23.929Z,2.72
2019-01-05T00:36:33.551Z,2.75
2019-01-05T00:39:19.921Z,3.05
2019-01-05T00:42:06.986Z,2.87
2019-01-05T00:44:52.829Z,3.35
2019-01-05T00:47:34.635Z,2.90
2019-01-05T00:50:28.852Z,3.62
2019-01-05T00:53:18.453Z,3.12
2019-01-05T00:56:05.424Z,3.22
2019-01-05T00:58:52.418Z,3.33
2019-01-05T01:01:42.171Z,3.42
2019-01-05T01:04:41.304Z,4.00
2019-01-05T01:07:27.133Z,3.42
2019-01-05T01:10:07.812Z,3.67
2019-01-05T01:13:10.197Z,3.83
2019-01-05T01:15:57.199Z,4.22
2019-01-05T01:18:53.102Z,4.10
2019-01-05T01:21:33.298Z,4.60
2019-01-05T01:24:21.372Z,4.20
2019-01-05T01:27:08.270Z,4.47
2019-01-05T01:29:53.414Z,4.82
2019-01-05T01:32:44.847Z,5.93
2019-01-05T01:35:30.506Z,5.60
2019-01-05T01:38:42.726Z,4.95
2019-01-05T01:41:30.229Z,4.78
2019-01-05T01:44:22.998Z,5.47
2019-01-05T01:47:08.371Z,5.70
2019-01-05T01:49:54.006Z,5.40
2019-01-05T01:52:44.191Z,5.32
2019-01-05T01:55:29.744Z,5.10
2019-01-05T01:58:16.458Z,5.32
2019-01-05T02:01:13.295Z,5.55
2019-01-05T02:03:58.722Z,8.45
2019-01-05T02:06:44.587Z,6.55
2019-01-05T02:09:40.394Z,5.85
2019-01-05T02:12:24.504Z,5.30
2019-01-05T02:15:32.849Z,6.18
2019-01-05T02:18:23.301Z,4.87
2019-01-05T02:21:32.312Z,5.85
2019-01-05T02:24:32.528Z,5.70
2019-01-05T02:27:46.426Z,5.78
2019-01-05T02:30:49.713Z,5.28
2019-01-05T02:33:51.270Z,6.18
2019-01-05T02:37:02.541Z,5.87
2019-01-05T02:39:54.993Z,6.35
2019-01-05T02:43:10.670Z,7.32
2019-01-05T02:46:24.201Z,5.85
2019-01-05T02:49:19.761Z,6.87
2019-01-05T02:52:33.951Z,7.82
2019-01-05T02:55:44.715Z,8.35
2019-01-05T02:58:48.404Z,8.20
2019-01-05T03:02:01.523Z,8.18
2019-01-05T03:04:56.657Z,7.32
2019-01-05T03:08:08.374Z,7.07
2019-01-05T03:11:09.532Z,7.95
2019-01-05T03:14:26.983Z,6.70
2019-01-05T03:17:30.365Z,6.60
2019-01-05T03:20:41.273Z,5.90
2019-01-05T03:23:49.375Z,5.68
2019-01-05T03:27:06.651Z,4.62
2019-01-05T03:30:12.779Z,5.68
2019-01-05T03:33:31.817Z,4.30
2019-01-05T03:36:53.457Z,4.70
2019-01-05T03:40:21.318Z,4.00
2019-01-05T03:43:25.975Z,3.05
2019-01-05T03:46:43.073Z,2.95
2019-01-05T03:49:41.709Z,2.67
2019-01-05T03:52:54.098Z,2.62
2019-01-05T03:55:49.099Z,2.47
2019-01-05T03:58:46.001Z,2.90
2019-01-05T04:02:10.249Z,2.20
2019-01-05T04:05:23.870Z,2.50
2019-01-05T04:08:22.200Z,2.58
2019-01-05T04:11:22.495Z,2.92
2019-01-05T04:14:20.213Z,2.30
2019-01-05T04:17:24.552Z,2.37
2019-01-05T04:20:34.249Z,2.75
2019-01-05T04:23:32.804Z,2.15
2019-01-05T04:26:52.353Z,2.17
2019-01-05T04:29:57.652Z,2.55
2019-01-05T04:33:03.158Z,2.95
2019-01-05T04:36:07.210Z,2.40
2019-01-05T04:39:12.420Z,1.92
2019-01-05T04:42:24.542Z,1.98
2019-01-05T04:45:29.717Z,2.15
2019-01-05T04:48:46.354Z,2.28
2019-01-05T04:51:51.095Z,2.17
2019-01-05T04:54:44.938Z,2.30
2019-01-05T04:57:49.281Z,1.95
2019-01-05T05:00:57.514Z,2.30
2019-01-05T05:04:03.074Z,1.92
2019-01-05T05:07:14.213Z,2.28
2019-01-05T05:10:18.744Z,2.28
2019-01-05T05:13:20.413Z,2.25
2019-01-05T05:16:31.495Z,2.28
2019-01-05T05:19:32.290Z,2.50
2019-01-05T05:22:52.302Z,2.22
2019-01-05T05:26:00.098Z,1.90
2019-01-05T05:29:11.668Z,2.35
2019-01-05T05:32:07.282Z,2.15
2019-01-05T05:35:12.235Z,2.65
2019-01-05T05:38:31.362Z,2.55
2019-01-05T05:41:52.600Z,2.35
2019-01-05T05:45:04.393Z,2.00
2019-01-05T05:48:03.045Z,2.40
2019-01-05T05:51:16.491Z,1.83
2019-01-05T05:54:16.839Z,1.90
2019-01-05T05:57:41.000Z,2.37
2019-01-05T06:01:05.964Z,2.33
2019-01-05T06:04:04.320Z,2.42
2019-01-05T06:07:17.220Z,2.20
2019-01-05T06:10:25.227Z,2.03
2019-01-05T06:13:34.611Z,1.85
2019-01-05T06:16:45.664Z,1.67
2019-01-05T06:20:19.031Z,1.75
2019-01-05T06:23:15.373Z,2.15
2019-01-05T06:26:26.701Z,1.37
2019-01-05T06:29:29.548Z,2.42
2019-01-05T06:32:35.988Z,1.42
2019-01-05T06:35:55.558Z,1.90
2019-01-05T06:39:01.761Z,1.98
2019-01-05T06:42:21.571Z,1.37
2019-01-05T06:45:25.179Z,1.62
2019-01-05T06:48:40.127Z,1.48
2019-01-05T06:51:58.700Z,1.80
2019-01-05T06:55:23.272Z,1.67
2019-01-05T06:58:45.512Z,1.10
2019-01-05T07:01:53.756Z,1.35
2019-01-05T07:05:07.394Z,1.42
2019-01-05T07:08:25.100Z,1.60
2019-01-05T07:11:26.442Z,1.50
2019-01-05T07:14:31.706Z,1.48
2019-01-05T07:17:35.574Z,1.73
2019-01-05T07:20:23.739Z,1.77
2019-01-05T07:23:29.071Z,1.73
2019-01-05T07:26:42.869Z,1.95
2019-01-05T07:29:57.997Z,1.70
2019-01-05T07:33:19.640Z,1.73
2019-01-05T07:36:12.934Z,2.10
2019-01-05T07:39:36.370Z,1.42
2019-01-05T07:42:41.038Z,1.60
2019-01-05T07:45:37.568Z,1.42
2019-01-05T07:48:58.457Z,1.50
2019-01-05T07:52:04.619Z,1.98
2019-01-05T07:55:08.856Z,1.77
2019-01-05T07:58:16.744Z,1.70
2019-01-05T08:01:21.893Z,1.92
2019-01-05T08:04:25.751Z,2.00
2019-01-05T08:07:34.001Z,2.00
2019-01-05T08:10:29.610Z,1.80
2019-01-05T08:13:34.121Z,2.03
2019-01-05T08:16:43.615Z,2.80
2019-01-05T08:20:01.106Z,2.42
2019-01-05T08:23:08.902Z,2.53
2019-01-05T08:26:13.929Z,1.92
2019-01-05T08:29:31.029Z,3.00
2019-01-05T08:32:35.910Z,2.12
2019-01-05T08:35:41.299Z,2.28
2019-01-05T08:38:45.642Z,2.10
2019-01-05T08:41:34.803Z,2.35
2019-01-05T08:44:41.002Z,2.30
2019-01-05T08:48:01.081Z,3.10
2019-01-05T08:51:06.291Z,2.15
2019-01-05T08:54:03.372Z,1.92
2019-01-05T08:57:07.287Z,2.60
2019-01-05T09:00:40.836Z,2.20
2019-01-05T09:04:03.901Z,2.90
2019-01-05T09:07:09.762Z,2.37
2019-01-05T09:10:21.718Z,2.05
2019-01-05T09:13:22.091Z,2.08
2019-01-05T09:16:31.275Z,2.33
2019-01-05T09:19:24.547Z,2.78
2019-01-05T09:22:28.160Z,2.22
2019-01-05T09:25:40.078Z,2.42
2019-01-05T09:29:07.012Z,2.53
2019-01-05T09:32:19.328Z,2.40
2019-01-05T09:35:23.639Z,2.80
2019-01-05T09:38:27.420Z,1.90
2019-01-05T09:41:40.486Z,2.33
2019-01-05T09:44:40.338Z,2.35
2019-01-05T09:47:31.997Z,3.03
2019-01-05T09:50:40.778Z,2.33
2019-01-05T09:53:44.634Z,3.33
2019-01-05T09:56:50.237Z,2.80
2019-01-05T10:00:05.108Z,2.60
2019-01-05T10:03:11.555Z,2.90
2019-01-05T10:06:20.702Z,2.95
2019-01-05T10:09:38.646Z,2.55
2019-01-05T10:12:42.656Z,3.12
2019-01-05T10:15:58.737Z,2.65
2019-01-05T10:19:16.143Z,2.47
2019-01-05T10:22:13.763Z,3.15
2019-01-05T10:25:17.522Z,3.30
2019-01-05T10:28:25.496Z,2.97
2019-01-05T10:31:42.705Z,2.42
2019-01-05T10:34:56.447Z,2.95
2019-01-05T10:38:07.401Z,2.53
2019-01-05T10:41:11.121Z,3.08
2019-01-05T10:44:25.561Z,2.25
2019-01-05T10:47:29.025Z,3.10
2019-01-05T10:50:51.894Z,2.92
2019-01-05T10:54:05.143Z,2.47
2019-01-05T10:57:10.753Z,2.78
2019-01-05T11:00:15.491Z,2.65
2019-01-05T11:03:24.018Z,2.20
2019-01-05T11:06:42.506Z,2.67
2019-01-05T11:09:46.580Z,2.47
2019-01-05T11:13:08.797Z,2.10
2019-01-05T11:16:12.338Z,1.77
2019-01-05T11:19:20.249Z,1.80
2019-01-05T11:22:29.836Z,1.73
2019-01-05T11:25:46.912Z,2.28
2019-01-05T11:29:05.898Z,2.53
2019-01-05T11:32:08.185Z,2.10
2019-01-05T11:35:10.200Z,1.80
2019-01-05T11:38:24.318Z,1.73
2019-01-05T11:41:39.426Z,1.92
2019-01-05T11:44:54.089Z,1.60
2019-01-05T11:47:58.091Z,1.50
2019-01-05T11:51:19.070Z,1.50
2019-01-05T11:54:24.121Z,1.92
2019-01-05T11:57:25.944Z,1.35
2019-01-05T12:00:32.738Z,1.62
2019-01-05T12:03:39.747Z,1.85
2019-01-05T12:06:42.658Z,2.08
2019-01-05T12:10:05.922Z,1.80
2019-01-05T12:13:13.798Z,2.20
2019-01-05T12:16:19.604Z,1.50
2019-01-05T12:19:15.753Z,1.65
2019-01-05T12:22:28.055Z,1.85
2019-01-05T12:25:56.290Z,1.90
2019-01-05T12:29:03.533Z,2.30
2019-01-05T12:32:18.516Z,1.98
2019-01-05T12:35:15.509Z,2.25
2019-01-05T12:38:42.716Z,2.05
2019-01-05T12:41:45.626Z,2.40
2019-01-05T12:44:36.690Z,1.92
2019-01-05T12:47:35.316Z,2.42
2019-01-05T12:50:33.705Z,2.08
2019-01-05T12:53:55.041Z,1.90
2019-01-05T12:57:09.806Z,2.40
2019-01-05T13:00:28.336Z,2.20
2019-01-05T13:03:41.644Z,2.10
2019-01-05T13:06:40.569Z,2.70
2019-01-05T13:09:55.798Z,2.55
2019-01-05T13:12:51.696Z,2.40
2019-01-05T13:15:56.162Z,3.12
2019-01-05T13:19:24.047Z,2.25
2019-01-05T13:22:27.039Z,3.03
2019-01-05T13:25:33.872Z,2.50
2019-01-05T13:28:35.602Z,2.90
2019-01-05T13:31:54.354Z,3.25
2019-01-05T13:34:46.784Z,3.17
2019-01-05T13:37:54.995Z,2.85
2019-01-05T13:40:58.546Z,2.85
2019-01-05T13:44:30.770Z,2.40
2019-01-05T13:47:34.363Z,2.55
2019-01-05T13:50:57.955Z,3.08
2019-01-05T13:54:08.846Z,2.70
2019-01-05T13:57:16.120Z,2.70
2019-01-05T14:00:04.265Z,2.95
2019-01-05T14:03:06.575Z,2.90
2019-01-05T14:06:05.696Z,2.28
2019-01-05T14:09:06.360Z,2.90
2019-01-05T14:11:51.746Z,2.62
2019-01-05T14:14:38.678Z,3.12
2019-01-05T14:17:24.306Z,2.75
2019-01-05T14:20:11.765Z,2.67
2019-01-05T14:22:48.629Z,2.53
2019-01-05T14:25:45.493Z,2.67
2019-01-05T14:28:30.325Z,3.00
2019-01-05T14:31:16.201Z,3.22
2019-01-05T14:34:02.080Z,2.22
2019-01-05T14:36:42.284Z,2.65
2019-01-05T14:39:27.548Z,2.47
2019-01-05T14:42:23.455Z,2.65
2019-01-05T14:45:16.615Z,3.28
2019-01-05T14:48:03.861Z,2.72
2019-01-05T14:50:49.188Z,2.95
2019-01-05T14:53:35.051Z,2.10
2019-01-05T14:56:20.860Z,2.70
2019-01-05T14:59:19.843Z,2.85
2019-01-05T15:02:05.446Z,3.10
2019-01-05T15:04:58.706Z,3.80
2019-01-05T15:07:48.842Z,2.95
2019-01-05T15:10:34.079Z,3.05
2019-01-05T15:13:31.988Z,2.45
2019-01-05T15:16:34.500Z,3.00
2019-01-05T15:19:29.664Z,2.85
2019-01-05T15:22:19.811Z,3.10
2019-01-05T15:25:15.758Z,3.33
2019-01-05T15:28:11.642Z,2.85
2019-01-05T15:30:57.228Z,2.58
2019-01-05T15:33:59.283Z,2.97
2019-01-05T15:36:44.832Z,2.25
2019-01-05T15:39:30.289Z,3.80
2019-01-05T15:42:23.209Z,2.58
2019-01-05T15:45:16.069Z,2.95
2019-01-05T15:48:01.523Z,2.90
2019-01-05T15:50:48.321Z,2.50
2019-01-05T15:53:42.757Z,2.87
2019-01-05T15:56:28.546Z,3.12
2019-01-05T15:59:13.939Z,3.12
2019-01-05T16:02:06.856Z,3.42
2019-01-05T16:04:54.217Z,3.30
2019-01-05T16:07:39.610Z,3.35
2019-01-05T16:10:25.268Z,2.78
2019-01-05T16:13:16.775Z,2.83
2019-01-05T16:16:15.577Z,2.30
2019-01-05T16:19:21.439Z,2.67
2019-01-05T16:22:07.232Z,2.35
2019-01-05T16:24:50.331Z,2.78
2019-01-05T16:27:43.304Z,2.58
2019-01-05T16:30:29.224Z,2.37
2019-01-05T16:33:16.263Z,2.70
2019-01-05T16:36:15.263Z,2.15
2019-01-05T16:39:07.968Z,2.40
2019-01-05T16:41:53.413Z,2.17
2019-01-05T16:44:40.409Z,2.87
2019-01-05T16:47:25.929Z,2.75
2019-01-05T16:50:17.779Z,2.70
2019-01-05T16:52:58.808Z,2.60
2019-01-05T16:55:44.201Z,2.60
2019-01-05T16:58:31.278Z,3.30
2019-01-05T17:01:22.483Z,3.03
2019-01-05T17:04:02.771Z,4.18
2019-01-05T17:06:53.529Z,3.12
2019-01-05T17:09:41.074Z,3.30
2019-01-05T17:12:29.400Z,2.97
2019-01-05T17:15:06.713Z,3.62
2019-01-05T17:17:56.687Z,2.83
2019-01-05T17:20:46.773Z,3.37
2019-01-05T17:23:39.626Z,3.30
2019-01-05T17:26:26.735Z,3.30
2019-01-05T17:29:05.367Z,2.92
2019-01-05T17:31:52.955Z,4.05
2019-01-05T17:34:39.379Z,3.37
2019-01-05T17:37:27.680Z,3.17
2019-01-05T17:40:29.781Z,2.83
2019-01-05T17:43:23.064Z,2.35
2019-01-05T17:46:13.237Z,2.65
2019-01-05T17:48:58.677Z,3.03
2019-01-05T17:51:37.270Z,2.70
2019-01-05T17:54:24.689Z,2.85
2019-01-05T17:57:10.257Z,3.00
2019-01-05T17:59:55.725Z,4.28
2019-01-05T18:02:42.765Z,2.97
2019-01-05T18:05:32.557Z,2.62
2019-01-05T18:08:37.980Z,3.20
2019-01-05T18:11:28.283Z,3.20
2019-01-05T18:14:14.156Z,2.95
2019-01-05T18:17:10.117Z,2.78
2019-01-05T18:19:55.917Z,3.00
2019-01-05T18:22:48.214Z,2.47
2019-01-05T18:25:33.712Z,3.35
2019-01-05T18:28:39.095Z,3.03
2019-01-05T18:31:32.313Z,2.80
2019-01-05T18:34:18.283Z,2.85
2019-01-05T18:37:09.061Z,3.95
2019-01-05T18:39:55.017Z,3.20
2019-01-05T18:42:32.658Z,2.78
2019-01-05T18:45:28.327Z,3.00
2019-01-05T18:48:08.798Z,3.80
2019-01-05T18:51:03.149Z,2.72
2019-01-05T18:53:52.737Z,2.85
2019-01-05T18:56:49.514Z,2.65
2019-01-05T18:59:42.055Z,2.97
2019-01-05T19:02:34.574Z,2.78
2019-01-05T19:05:21.463Z,2.92
2019-01-05T19:08:26.717Z,3.00
2019-01-05T19:11:18.765Z,2.60
2019-01-05T19:14:11.954Z,2.90
2019-01-05T19:16:51.910Z,3.42
2019-01-05T19:19:39.189Z,3.50
2019-01-05T19:22:31.798Z,2.42
2019-01-05T19:25:18.004Z,3.22
2019-01-05T19:28:13.953Z,2.58
2019-01-05T19:30:59.891Z,2.58
2019-01-05T19:33:45.468Z,2.80
2019-01-05T19:36:34.257Z,3.20
2019-01-05T19:39:21.009Z,3.03
2019-01-05T19:42:18.989Z,2.83
2019-01-05T19:45:05.240Z,2.80
2019-01-05T19:48:01.296Z,2.90
2019-01-05T19:50:48.085Z,2.92
2019-01-05T19:53:34.350Z,4.05
2019-01-05T19:56:27.109Z,3.15
2019-01-05T19:59:12.967Z,3.20
2019-01-05T20:02:08.960Z,3.55
2019-01-05T20:04:56.276Z,3.53
2019-01-05T20:07:45.626Z,3.37
2019-01-05T20:10:48.131Z,3.00
2019-01-05T20:13:32.450Z,3.72
2019-01-05T20:16:22.221Z,3.75
2019-01-05T20:19:24.742Z,3.58
2019-01-05T20:22:16.993Z,3.53
2019-01-05T20:25:10.267Z,4.07
2019-01-05T20:27:56.441Z,3.53
2019-01-05T20:30:43.483Z,4.30
2019-01-05T20:33:29.089Z,3.78
2019-01-05T20:36:16.079Z,3.70
2019-01-05T20:39:02.121Z,3.30
2019-01-05T20:41:49.163Z,3.33
2019-01-05T20:44:34.764Z,3.78
2019-01-05T20:47:21.858Z,3.25
2019-01-05T20:50:07.774Z,3.12
2019-01-05T20:53:03.878Z,3.62
2019-01-05T20:55:49.490Z,3.22
2019-01-05T20:58:39.372Z,4.18
2019-01-05T21:01:29.957Z,3.72
2019-01-05T21:04:29.092Z,3.90
2019-01-05T21:07:12.485Z,3.10
2019-01-05T21:10:17.825Z,4.03
2019-01-05T21:13:05.447Z,3.65
2019-01-05T21:15:50.995Z,3.30
2019-01-05T21:18:44.316Z,3.72
2019-01-05T21:21:40.594Z,4.25
2019-01-05T21:24:25.937Z,3.22
2019-01-05T21:27:19.437Z,3.45
2019-01-05T21:30:08.427Z,4.00
2019-01-05T21:32:53.007Z,3.67
2019-01-05T21:35:42.741Z,3.47
2019-01-05T21:38:35.413Z,3.80
2019-01-05T21:41:18.260Z,3.37
2019-01-05T21:44:04.073Z,3.55
2019-01-05T21:46:46.740Z,3.58
2019-01-05T21:49:32.211Z,3.65
2019-01-05T21:52:31.763Z,3.65
2019-01-05T21:55:17.613Z,3.85
2019-01-05T21:58:16.619Z,3.87
2019-01-05T22:01:02.240Z,3.30
2019-01-05T22:03:52.066Z,3.10
2019-01-05T22:09:35.441Z,4.10
2019-01-05T22:12:21.225Z,3.10
2019-01-05T22:15:14.883Z,4.15
2019-01-05T22:17:59.809Z,3.92
2019-01-05T22:20:46.330Z,3.42
2019-01-05T22:23:27.677Z,3.33
2019-01-05T22:26:18.125Z,3.58
2019-01-05T22:29:03.629Z,3.95
2019-01-05T22:31:49.606Z,3.05
2019-01-05T22:34:39.516Z,3.20
2019-01-05T22:37:42.015Z,3.22
2019-01-05T22:40:36.859Z,3.30
2019-01-05T22:43:23.002Z,2.85
2019-01-05T22:46:11.869Z,2.75
2019-01-05T22:49:04.971Z,3.00
2019-01-05T22:51:50.832Z,3.03
2019-01-05T22:54:38.201Z,3.33
2019-01-05T22:57:25.300Z,2.70
2019-01-05T23:00:30.763Z,3.62
2019-01-05T23:03:12.636Z,2.62
2019-01-05T23:05:59.422Z,3.50
2019-01-05T23:08:58.228Z,3.25
2019-01-05T23:11:44.229Z,3.30
2019-01-05T23:14:29.840Z,2.30
2019-01-05T23:17:15.790Z,3.20
2019-01-05T23:20:01.944Z,2.90
2019-01-05T23:23:07.146Z,3.10
2019-01-05T23:25:49.571Z,2.55
2019-01-05T23:28:35.788Z,3.17
2019-01-05T23:31:31.547Z,2.92
2019-01-05T23:34:17.428Z,2.35
2019-01-05T23:37:02.939Z,3.15
2019-01-05T23:39:59.355Z,2.80
2019-01-05T23:42:52.194Z,3.10
2019-01-05T23:45:42.933Z,3.05
2019-01-05T23:48:28.636Z,3.28
2019-01-05T23:51:25.157Z,2.47
2019-01-05T23:54:27.274Z,3.20
2019-01-05T23:57:12.835Z,3.00
2019-01-05T23:59:59.002Z,2.35
